Time;durP1;ratioP1;P1;durP2;ratioP2;P2;SDS_P1;SDS_P2;PMS_P1;PMS_P2;Temp;Humidity;BMP_temperature;BMP_pressure;BME280_temperature;BME280_humidity;BME280_pressure;Samples;Min_cycle;Max_cycle;Signal;HPM_P1;HPM_P2
2021/07/14 00:26:13;;;;;;;19.83;16.98;;;;;;;27.85;100.00;100916.88;6032082;22;20020;-78
2021/07/14 00:29:01;;;;;;;20.75;17.05;;;;;;;27.94;100.00;100917.91;5055766;28;20040;-76
2021/07/14 00:31:47;;;;;;;20.50;16.52;;;;;;;27.49;100.00;100919.97;5053667;28;20084;-77
2021/07/14 00:34:33;;;;;;;18.45;16.27;;;;;;;27.85;100.00;100921.41;5055084;28;20028;-77
2021/07/14 00:37:19;;;;;;;22.77;16.10;;;;;;;27.63;100.00;100906.19;5055356;28;20029;-77
2021/07/14 00:40:08;;;;;;;20.13;15.30;;;;;;;27.44;100.00;100914.09;5054955;28;20397;-77
2021/07/14 00:42:54;;;;;;;19.52;15.90;;;;;;;27.18;100.00;100920.78;5055154;28;20120;-77
2021/07/14 00:45:40;;;;;;;20.38;15.55;;;;;;;27.35;100.00;100922.94;5041085;28;20418;-76
2021/07/14 00:48:26;;;;;;;21.17;16.02;;;;;;;27.19;100.00;100917.09;5054965;28;20354;-77
2021/07/14 00:51:12;;;;;;;17.92;15.52;;;;;;;27.08;100.00;100919.81;5054862;28;20029;-77
2021/07/14 00:53:59;;;;;;;21.98;16.30;;;;;;;27.34;100.00;100911.34;5040588;28;20357;-77
2021/07/14 00:56:48;;;;;;;18.65;16.35;;;;;;;27.26;100.00;100912.97;5054518;28;20032;-76
2021/07/14 00:59:34;;;;;;;22.80;16.70;;;;;;;27.37;100.00;100911.06;5054300;28;20090;-77
2021/07/14 01:02:21;;;;;;;20.08;17.13;;;;;;;27.34;100.00;100918.56;5054641;28;20025;-77
2021/07/14 01:05:46;;;;;;;21.05;17.35;;;;;;;27.03;100.00;100917.53;5053512;28;20074;-76
2021/07/14 01:09:01;;;;;;;22.67;19.77;;;;;;;26.87;100.00;100917.06;5050127;28;20454;-77
2021/07/14 01:11:48;;;;;;;24.67;19.52;;;;;;;26.66;100.00;100916.13;5054823;28;20124;-76
2021/07/14 01:14:53;;;;;;;21.90;19.60;;;;;;;26.65;100.00;100921.63;5039319;28;20031;-76
2021/07/14 01:17:54;;;;;;;23.55;18.65;;;;;;;27.07;100.00;100924.38;5039954;28;20515;-77
2021/07/14 01:20:49;;;;;;;23.52;19.13;;;;;;;26.66;100.00;100917.97;5054515;28;20467;-75
2021/07/14 01:24:03;;;;;;;22.02;19.63;;;;;;;26.84;100.00;100916.47;5039429;28;20021;-77
2021/07/14 01:27:10;;;;;;;45.55;22.52;;;;;;;26.96;100.00;100915.44;5053489;28;20045;-77
2021/07/14 05:43:26;;;;;;;37.08;30.45;;;;;;;26.66;100.00;101073.88;5772664;22;20996;-81
2021/07/14 05:46:11;;;;;;;32.15;25.30;;;;;;;26.59;100.00;101075.31;4972827;28;20081;-78
2021/07/14 05:49:02;;;;;;;33.95;25.75;;;;;;;26.85;100.00;101075.00;4972693;28;20033;-78
2021/07/14 05:51:48;;;;;;;28.25;25.17;;;;;;;26.96;100.00;101079.53;4975770;28;20022;-79
2021/07/14 05:54:34;;;;;;;30.08;26.40;;;;;;;26.46;100.00;101078.09;4954936;28;20051;-78
2021/07/14 05:57:20;;;;;;;30.38;26.67;;;;;;;26.20;100.00;101083.78;4957428;28;20023;-78
2021/07/14 06:00:08;;;;;;;29.85;26.48;;;;;;;26.19;100.00;101080.22;4955215;28;20453;-78
2021/07/14 06:02:54;;;;;;;32.97;27.60;;;;;;;26.26;100.00;101085.97;4962254;28;20038;-78
2021/07/14 06:05:39;;;;;;;30.98;27.27;;;;;;;26.67;100.00;101087.22;4956605;28;20110;-79
2021/07/14 06:08:25;;;;;;;30.65;27.27;;;;;;;26.87;100.00;101094.56;4955150;28;20057;-79
2021/07/14 06:11:11;;;;;;;27.75;24.83;;;;;;;27.20;100.00;101096.41;4954167;28;20034;-79
2021/07/14 06:13:56;;;;;;;30.35;24.83;;;;;;;26.89;100.00;101091.75;4955096;28;20455;-78
2021/07/14 06:16:42;;;;;;;29.27;25.40;;;;;;;26.85;100.00;101101.06;4937331;28;20504;-79
2021/07/14 06:19:28;;;;;;;30.80;25.77;;;;;;;26.97;100.00;101095.53;4953922;28;20027;-78
2021/07/14 06:22:14;;;;;;;29.92;24.42;;;;;;;27.14;100.00;101102.28;4961900;28;20062;-78
2021/07/14 06:25:00;;;;;;;28.15;24.92;;;;;;;27.26;100.00;101104.03;4953599;28;20046;-78
2021/07/14 06:27:46;;;;;;;30.75;23.67;;;;;;;27.43;100.00;101103.50;4962183;28;20043;-78
2021/07/14 06:30:32;;;;;;;29.13;22.73;;;;;;;27.35;100.00;101105.97;4958990;28;20302;-78
2021/07/14 06:33:20;;;;;;;26.05;21.63;;;;;;;28.08;100.00;101115.13;4956073;28;20023;-78
2021/07/14 06:36:06;;;;;;;24.33;20.92;;;;;;;28.41;100.00;101116.81;4954910;28;20106;-79
2021/07/14 06:38:52;;;;;;;28.25;20.55;;;;;;;28.98;100.00;101104.59;4956269;28;20332;-78
2021/07/14 06:41:38;;;;;;;23.48;19.55;;;;;;;28.46;100.00;101106.53;4953424;28;20423;-79
2021/07/14 06:44:24;;;;;;;24.17;19.70;;;;;;;28.84;100.00;101099.53;4958393;28;20450;-78
2021/07/14 06:47:09;;;;;;;25.08;19.90;;;;;;;28.70;100.00;101101.72;4957354;28;20126;-78
2021/07/14 06:49:56;;;;;;;25.65;20.05;;;;;;;28.84;100.00;101099.53;4960422;28;20502;-79
2021/07/14 06:52:43;;;;;;;24.20;18.73;;;;;;;28.92;100.00;101102.41;4958143;28;20102;-79
2021/07/14 06:55:28;;;;;;;28.10;21.17;;;;;;;29.17;100.00;101103.84;4951248;28;20034;-78
2021/07/14 06:58:17;;;;;;;27.65;19.70;;;;;;;29.04;100.00;101101.38;4959030;28;20054;-78
2021/07/14 07:07:12;;;;;;;29.33;20.63;;;;;;;29.20;100.00;101100.84;4780437;28;20458;-70
2021/07/14 07:09:58;;;;;;;23.58;18.70;;;;;;;29.16;100.00;101099.41;4985022;28;20429;-69
2021/07/14 07:12:44;;;;;;;22.55;17.88;;;;;;;29.44;100.00;101107.63;4997394;28;20481;-70
2021/07/14 07:15:30;;;;;;;19.20;16.38;;;;;;;29.68;100.00;101094.66;4988155;28;20208;-70
2021/07/14 07:18:17;;;;;;;20.05;15.52;;;;;;;29.77;100.00;101101.09;4973539;28;20633;-69
2021/07/14 07:21:07;;;;;;;17.90;15.07;;;;;;;29.77;100.00;101096.50;4976895;28;20026;-69
2021/07/14 07:23:53;;;;;;;19.23;15.52;;;;;;;29.77;100.00;101095.69;4991290;28;20488;-70
2021/07/14 07:26:39;;;;;;;21.95;14.50;;;;;;;29.92;100.00;101095.13;4977817;28;20042;-69
2021/07/14 07:29:28;;;;;;;14.93;12.25;;;;;;;30.06;100.00;101100.09;4993663;28;20525;-69
2021/07/14 07:32:14;;;;;;;20.20;12.60;;;;;;;30.29;100.00;101103.38;4979894;28;20385;-73
2021/07/14 08:26:34;;;;;;;18.08;11.48;;;;;;;31.69;86.16;101101.41;5176149;22;20186;-71
2021/07/14 08:29:22;;;;;;;15.02;11.40;;;;;;;32.87;82.49;101098.31;4996563;28;20026;-71
2021/07/14 08:32:08;;;;;;;16.98;11.45;;;;;;;32.49;82.33;101098.66;4980321;28;20030;-73
2021/07/14 08:34:58;;;;;;;20.10;12.27;;;;;;;33.02;87.73;101105.69;4994032;28;20030;-71
2021/07/14 08:37:47;;;;;;;14.80;10.57;;;;;;;33.58;76.57;101096.97;4993063;28;20031;-72
2021/07/14 08:40:33;;;;;;;14.80;13.23;;;;;;;33.96;76.59;101096.44;4993604;28;20039;-73
2021/07/14 08:43:21;;;;;;;20.38;13.48;;;;;;;33.72;79.13;101090.91;4994859;28;20105;-73
2021/07/14 08:46:07;;;;;;;14.60;11.80;;;;;;;34.12;75.34;101093.72;4980912;28;20026;-73
2021/07/14 08:48:52;;;;;;;12.88;11.57;;;;;;;34.15;77.82;101087.97;4979707;28;20363;-73
2021/07/14 08:51:38;;;;;;;14.88;11.18;;;;;;;33.61;77.76;101080.34;4994860;28;20037;-74
2021/07/14 08:54:24;;;;;;;17.92;10.50;;;;;;;33.68;77.28;101084.97;4994017;28;20060;-73
2021/07/14 08:57:12;;;;;;;20.05;11.65;;;;;;;33.60;84.79;101089.50;4994496;28;20030;-74
2021/07/14 08:59:58;;;;;;;14.57;11.68;;;;;;;34.15;79.37;101087.97;4994481;28;20032;-73
2021/07/14 09:02:44;;;;;;;14.73;11.43;;;;;;;33.65;84.51;101089.84;4980080;28;20487;-74
2021/07/14 09:05:30;;;;;;;12.30;10.98;;;;;;;34.36;78.67;101093.78;4994336;28;20030;-73
2021/07/14 09:08:16;;;;;;;15.27;11.15;;;;;;;34.41;76.16;101084.09;4994307;28;20018;-73
2021/07/14 09:11:03;;;;;;;17.00;10.95;;;;;;;33.87;78.08;101086.56;4994218;28;20343;-73
2021/07/14 09:13:48;;;;;;;23.35;11.50;;;;;;;33.86;79.65;101084.84;4993586;28;20450;-73
2021/07/14 09:16:37;;;;;;;14.38;10.77;;;;;;;34.13;78.15;101079.09;4994318;28;20030;-73
2021/07/14 09:19:26;;;;;;;15.02;10.75;;;;;;;33.90;80.50;101072.59;4993460;28;20100;-73
2021/07/14 09:22:21;;;;;;;12.30;11.10;;;;;;;33.62;82.20;101076.59;4993500;28;20030;-72
2021/07/14 09:25:10;;;;;;;13.48;10.57;;;;;;;33.99;80.08;101074.34;4993211;28;20119;-74
2021/07/14 09:27:58;;;;;;;14.75;11.60;;;;;;;34.19;82.00;101070.28;4993497;28;20088;-71
2021/07/14 09:30:47;;;;;;;17.52;11.02;;;;;;;33.96;82.20;101074.66;4993540;28;20031;-71
2021/07/14 09:33:33;;;;;;;14.70;10.68;;;;;;;33.70;83.71;101069.31;4978990;28;20030;-71
2021/07/14 09:36:32;;;;;;;16.73;10.38;;;;;;;33.93;84.37;101075.00;4994069;28;20023;-72
2021/07/14 09:39:38;;;;;;;11.13;10.00;;;;;;;34.22;83.31;101073.50;4980412;28;20034;-71
2021/07/14 09:42:28;;;;;;;15.18;10.40;;;;;;;34.11;83.59;101079.28;4995462;28;20061;-72
2021/07/14 09:45:14;;;;;;;14.52;10.48;;;;;;;34.43;83.33;101081.19;4994867;28;20464;-74
2021/07/14 09:47:59;;;;;;;10.80;9.75;;;;;;;33.94;85.84;101073.97;4994772;28;20030;-73
2021/07/14 09:50:49;;;;;;;13.00;9.75;;;;;;;34.11;85.36;101081.97;4995055;28;20027;-73
2021/07/14 09:53:36;;;;;;;12.57;10.32;;;;;;;34.33;84.85;101077.78;4994769;28;20446;-73
2021/07/14 09:56:27;;;;;;;14.77;10.30;;;;;;;33.82;87.85;101068.03;4995162;28;20034;-74
2021/07/14 09:59:15;;;;;;;12.20;9.70;;;;;;;33.82;88.16;101072.59;4995218;28;20031;-73
2021/07/14 10:02:01;;;;;;;14.02;8.98;;;;;;;34.11;86.31;101073.00;4980977;28;20026;-73
2021/07/14 10:04:47;;;;;;;11.18;9.45;;;;;;;34.58;85.45;101076.72;4995128;28;20030;-72
2021/07/14 10:07:33;;;;;;;14.80;9.88;;;;;;;34.41;84.49;101077.78;4980563;28;20030;-72
2021/07/14 10:10:22;;;;;;;15.23;9.05;;;;;;;34.06;83.53;101073.50;4994325;28;20018;-73
2021/07/14 10:13:09;;;;;;;12.68;9.50;;;;;;;34.14;81.17;101068.06;4995323;28;20339;-72
2021/07/14 10:16:04;;;;;;;9.65;8.10;;;;;;;34.26;82.04;101068.56;4993957;28;20472;-72
2021/07/14 10:19:09;;;;;;;10.00;8.27;;;;;;;34.08;78.32;101073.31;4981296;28;20093;-73
2021/07/14 10:21:57;;;;;;;10.02;8.43;;;;;;;34.10;77.82;101071.28;4984895;28;20378;-72
2021/07/14 10:24:43;;;;;;;10.50;8.13;;;;;;;33.90;79.42;101069.88;4998397;28;20030;-72
2021/07/14 10:27:29;;;;;;;10.60;8.00;;;;;;;34.24;78.34;101070.63;4997733;28;20045;-73
2021/07/14 10:30:17;;;;;;;12.27;7.57;;;;;;;34.19;78.57;101067.56;4998907;28;20430;-71
2021/07/14 10:33:10;;;;;;;11.88;7.75;;;;;;;32.89;83.22;101060.97;4998352;28;20061;-73
2021/07/14 10:35:57;;;;;;;8.75;7.20;;;;;;;33.70;80.71;101054.88;4999024;28;20027;-72
2021/07/14 10:38:49;;;;;;;10.50;8.25;;;;;;;33.67;78.82;101056.06;4997928;28;20034;-73
2021/07/14 10:41:36;;;;;;;12.32;7.63;;;;;;;33.75;78.24;101057.97;4999135;28;20096;-72
2021/07/14 10:44:23;;;;;;;10.95;7.78;;;;;;;34.17;75.55;101058.69;4999296;28;20030;-73
2021/07/14 10:47:09;;;;;;;13.45;7.00;;;;;;;34.24;75.74;101066.00;4998502;28;20037;-73
2021/07/14 10:50:02;;;;;;;8.93;6.80;;;;;;;34.30;70.27;101057.16;4998401;28;20018;-72
2021/07/14 10:52:48;;;;;;;9.00;6.75;;;;;;;34.08;70.58;101057.00;4984961;28;20046;-72
2021/07/14 10:55:34;;;;;;;11.07;6.70;;;;;;;34.63;67.73;101053.41;4999026;28;20030;-72
2021/07/14 10:58:22;;;;;;;11.25;6.90;;;;;;;34.29;69.38;101050.03;4999154;28;20034;-72
2021/07/14 11:01:11;;;;;;;10.68;7.47;;;;;;;34.31;70.89;101050.72;4998464;28;20026;-72
2021/07/14 11:03:57;;;;;;;15.75;7.18;;;;;;;34.40;70.43;101044.25;4998128;28;20022;-71
2021/07/14 11:06:59;;;;;;;10.95;7.70;;;;;;;34.62;70.65;101040.84;4999477;28;20382;-71
2021/07/14 11:09:47;;;;;;;14.20;8.00;;;;;;;35.22;72.13;101033.00;4983712;28;20022;-71
2021/07/14 11:12:38;;;;;;;13.85;8.40;;;;;;;35.00;70.21;101040.06;4983943;28;20038;-71
2021/07/14 11:15:29;;;;;;;12.32;8.13;;;;;;;35.13;70.77;101031.34;4997150;28;20051;-71
2021/07/14 11:18:30;;;;;;;10.85;8.10;;;;;;;34.69;72.19;101038.25;4997614;28;20023;-71
2021/07/14 11:21:37;;;;;;;10.27;8.05;;;;;;;35.26;70.10;101026.16;4997018;28;20470;-72
2021/07/14 11:24:46;;;;;;;16.45;8.70;;;;;;;34.67;73.82;101018.50;4997424;28;20034;-72
2021/07/14 11:27:56;;;;;;;10.65;8.27;;;;;;;34.29;74.62;101021.97;4996699;28;20548;-71
2021/07/14 11:30:44;;;;;;;16.40;8.65;;;;;;;34.50;76.71;101022.31;4996466;28;20030;-71
2021/07/14 11:33:35;;;;;;;12.85;8.35;;;;;;;34.68;75.41;101017.50;4996808;28;20074;-71
2021/07/14 11:36:40;;;;;;;12.73;8.63;;;;;;;35.03;74.69;101017.06;4997531;28;20026;-71
2021/07/14 11:39:29;;;;;;;11.95;8.95;;;;;;;34.34;79.44;101004.13;4983050;28;20114;-71
2021/07/14 11:42:19;;;;;;;12.48;8.82;;;;;;;34.87;74.91;101015.25;4996870;28;20055;-72
2021/07/14 11:45:09;;;;;;;12.23;8.30;;;;;;;34.74;76.65;101006.78;4996770;28;20058;-72
2021/07/14 11:48:02;;;;;;;11.00;8.95;;;;;;;35.54;72.67;101005.59;4996899;28;20340;-73
2021/07/14 11:50:54;;;;;;;14.80;9.10;;;;;;;35.18;71.51;101001.69;4996744;28;20409;-72
2021/07/14 11:53:43;;;;;;;15.30;8.70;;;;;;;35.34;71.98;101004.34;4997019;28;20061;-72
2021/07/14 11:56:38;;;;;;;13.65;8.90;;;;;;;35.01;71.80;100997.34;4997225;28;20053;-72
2021/07/14 11:59:28;;;;;;;15.80;8.35;;;;;;;34.80;75.72;101007.97;4982797;28;20026;-72
2021/07/14 12:02:20;;;;;;;13.40;8.98;;;;;;;34.99;74.55;100993.94;4996772;28;20122;-72
2021/07/14 12:05:08;;;;;;;15.10;9.30;;;;;;;35.64;71.97;101000.78;4996455;28;20340;-72
2021/07/14 12:08:11;;;;;;;11.73;9.15;;;;;;;35.04;73.25;101003.28;4996453;28;20084;-71
2021/07/14 12:10:59;;;;;;;13.73;9.10;;;;;;;34.83;75.94;100996.72;4996720;28;20030;-72
2021/07/14 12:13:48;;;;;;;13.75;8.90;;;;;;;35.09;76.28;101000.03;4995878;28;20034;-73
2021/07/14 12:16:34;;;;;;;10.60;9.27;;;;;;;35.90;70.02;100995.81;4996333;28;20030;-73
2021/07/14 12:19:25;;;;;;;15.68;9.60;;;;;;;35.08;71.08;100993.72;4996157;28;20037;-71
2021/07/14 12:22:12;;;;;;;16.42;9.05;;;;;;;35.54;70.79;100983.78;4996480;28;20506;-72
2021/07/14 12:25:10;;;;;;;13.18;9.40;;;;;;;35.18;72.07;100993.50;4982610;28;20470;-71
2021/07/14 12:27:56;;;;;;;11.32;8.73;;;;;;;35.00;74.80;100982.03;4995403;28;20030;-71
2021/07/14 12:30:45;;;;;;;13.95;9.85;;;;;;;34.98;72.32;100984.94;4996625;28;20041;-71
2021/07/14 12:33:31;;;;;;;12.00;9.10;;;;;;;34.68;81.39;100982.94;4995109;28;20042;-71
2021/07/14 12:36:17;;;;;;;15.50;9.60;;;;;;;35.34;75.36;100982.53;4996147;28;20034;-72
2021/07/14 12:39:03;;;;;;;12.40;9.30;;;;;;;34.90;75.73;100995.84;4995630;28;20031;-71
2021/07/14 12:41:51;;;;;;;10.38;8.88;;;;;;;35.62;72.54;100986.44;4996010;28;20114;-72
2021/07/14 12:44:40;;;;;;;13.45;9.15;;;;;;;35.97;69.71;100983.16;4995226;28;20026;-71
2021/07/14 12:47:26;;;;;;;13.38;9.13;;;;;;;35.02;74.46;100988.13;4995825;28;20101;-72
2021/07/14 12:50:20;;;;;;;14.55;9.80;;;;;;;35.24;75.99;100990.09;4995921;28;20030;-72
2021/07/14 12:53:06;;;;;;;12.82;9.02;;;;;;;35.14;74.08;100993.03;4995520;28;20358;-72
2021/07/14 12:55:56;;;;;;;14.95;9.30;;;;;;;34.98;73.40;100979.47;4995828;28;20115;-72
2021/07/14 12:58:42;;;;;;;14.88;9.88;;;;;;;35.47;72.99;100984.69;4995364;28;20027;-72
2021/07/14 13:01:28;;;;;;;15.02;9.73;;;;;;;35.19;67.78;100976.13;4995439;28;20030;-72
2021/07/14 13:04:15;;;;;;;14.32;9.52;;;;;;;35.69;64.74;100984.72;4995489;28;20458;-72
2021/07/14 13:07:01;;;;;;;15.90;10.32;;;;;;;35.85;65.79;100981.03;4981959;28;20365;-72
2021/07/14 13:09:48;;;;;;;12.40;9.05;;;;;;;35.90;64.21;100984.03;4995316;28;20117;-72
2021/07/14 13:12:35;;;;;;;11.38;9.05;;;;;;;36.11;64.64;100971.41;4981756;28;20454;-72
2021/07/14 13:15:23;;;;;;;16.20;9.80;;;;;;;36.16;66.26;100974.41;4994866;28;20096;-72
2021/07/14 13:18:14;;;;;;;15.68;9.38;;;;;;;36.10;68.71;100983.38;4995672;28;20038;-72
2021/07/14 13:21:00;;;;;;;14.07;9.70;;;;;;;35.74;66.36;100974.09;4994500;28;20200;-73
2021/07/14 13:23:46;;;;;;;11.55;9.48;;;;;;;35.56;64.82;100973.56;4995471;28;20061;-73
2021/07/14 13:26:32;;;;;;;14.40;9.43;;;;;;;34.15;71.88;100970.97;4994356;28;20418;-73
2021/07/14 13:29:25;;;;;;;18.15;10.50;;;;;;;34.86;70.24;100980.88;4995171;28;20022;-72
2021/07/14 13:32:14;;;;;;;18.42;10.18;;;;;;;34.95;67.17;100971.66;4995288;28;20093;-72
2021/07/14 13:35:00;;;;;;;13.38;9.65;;;;;;;34.91;67.40;100972.16;4994829;28;20022;-71
2021/07/14 13:37:46;;;;;;;15.50;9.93;;;;;;;34.85;67.78;100965.59;4994925;28;20470;-71
2021/07/14 13:40:32;;;;;;;14.98;9.80;;;;;;;34.96;69.61;100961.63;4994960;28;20201;-72
2021/07/14 13:43:18;;;;;;;12.73;9.90;;;;;;;34.86;68.28;100964.56;4995426;28;20088;-72
2021/07/14 13:46:04;;;;;;;13.95;9.48;;;;;;;35.52;66.83;100955.88;4994902;28;20057;-73
2021/07/14 13:48:55;;;;;;;19.05;10.60;;;;;;;34.96;66.33;100948.00;4995205;28;20117;-73
2021/07/14 13:51:53;;;;;;;16.17;10.15;;;;;;;35.06;67.60;100944.03;4994750;28;20047;-73
2021/07/14 13:54:41;;;;;;;13.82;10.10;;;;;;;35.17;67.24;100948.22;4995647;28;20413;-72
2021/07/14 13:57:27;;;;;;;15.60;10.32;;;;;;;35.77;66.58;100940.19;4998649;28;20026;-73
2021/07/14 14:00:15;;;;;;;19.85;10.38;;;;;;;34.90;70.79;100935.94;4999205;28;20526;-73
2021/07/14 14:03:01;;;;;;;17.00;10.38;;;;;;;35.22;70.76;100935.75;4998176;28;20034;-73
2021/07/14 14:05:46;;;;;;;14.25;10.30;;;;;;;35.60;68.73;100935.88;4998670;28;20026;-72
2021/07/14 14:08:33;;;;;;;18.90;9.73;;;;;;;35.83;68.88;100934.84;4998703;28;20365;-72
2021/07/14 14:11:24;;;;;;;16.83;9.45;;;;;;;35.83;69.22;100931.28;4998671;28;20022;-74
2021/07/14 14:14:11;;;;;;;14.95;9.30;;;;;;;34.88;69.02;100931.69;4998250;28;20450;-71
2021/07/14 14:16:56;;;;;;;11.07;8.85;;;;;;;35.44;64.82;100917.75;4997892;28;20022;-72
2021/07/14 14:19:42;;;;;;;13.88;9.55;;;;;;;35.08;64.91;100916.59;4998680;28;20060;-72
2021/07/14 14:22:30;;;;;;;15.93;9.60;;;;;;;34.88;68.71;100910.72;4998483;28;20030;-73
2021/07/14 14:25:22;;;;;;;14.88;9.63;;;;;;;35.03;63.11;100919.00;4998474;28;20050;-74
2021/07/14 14:28:19;;;;;;;16.48;10.23;;;;;;;35.02;60.63;100934.50;4998513;28;20363;-72
2021/07/14 14:31:07;;;;;;;18.27;9.75;;;;;;;34.56;61.82;100929.91;4998748;28;20026;-72
2021/07/14 14:33:54;;;;;;;16.08;8.65;;;;;;;34.80;59.97;100926.28;4998249;28;20030;-72
2021/07/14 14:36:44;;;;;;;13.55;8.65;;;;;;;34.67;60.69;100925.94;4998342;28;20033;-73
2021/07/14 14:39:29;;;;;;;15.82;9.60;;;;;;;34.80;60.83;100934.47;4984109;28;20026;-73
2021/07/14 14:42:15;;;;;;;11.35;8.57;;;;;;;35.03;61.04;100932.63;4998757;28;20398;-73
2021/07/14 14:45:01;;;;;;;18.67;11.48;;;;;;;35.22;61.93;100929.44;4997864;28;20034;-73
2021/07/14 14:47:47;;;;;;;15.65;9.63;;;;;;;35.20;59.98;100934.25;4998631;28;20481;-74
2021/07/14 14:50:33;;;;;;;16.35;8.82;;;;;;;34.79;60.89;100925.41;4997910;28;20026;-74
2021/07/14 14:53:19;;;;;;;12.88;8.35;;;;;;;34.49;61.49;100934.38;4998028;28;20096;-72
2021/07/14 14:56:06;;;;;;;14.30;8.35;;;;;;;34.34;62.35;100932.53;4984214;28;20469;-72
2021/07/14 14:58:52;;;;;;;11.90;8.30;;;;;;;34.39;63.18;100930.16;4997508;28;20190;-72
2021/07/14 15:01:38;;;;;;;19.50;8.32;;;;;;;34.17;64.15;100933.56;4998277;28;20023;-72
2021/07/14 15:04:25;;;;;;;14.68;9.52;;;;;;;34.58;63.70;100932.44;4984025;28;20110;-73
2021/07/14 15:07:10;;;;;;;16.90;8.45;;;;;;;34.55;62.56;100941.00;4998109;28;20413;-72
2021/07/14 15:09:56;;;;;;;14.88;8.10;;;;;;;34.44;60.98;100927.75;4983788;28;20128;-73
2021/07/14 15:12:45;;;;;;;13.15;8.25;;;;;;;34.72;61.23;100929.00;4998217;28;20038;-73
2021/07/14 15:15:32;;;;;;;14.77;8.10;;;;;;;34.62;61.97;100936.53;4983009;28;20113;-73
2021/07/14 15:18:20;;;;;;;12.00;7.25;;;;;;;34.96;58.13;100935.22;4997103;28;20037;-73
2021/07/14 15:21:10;;;;;;;15.88;7.85;;;;;;;34.91;57.94;100936.75;4997651;28;20052;-73
2021/07/14 15:23:57;;;;;;;14.88;7.38;;;;;;;34.24;56.45;100932.69;4997809;28;20394;-73
2021/07/14 15:29:47;;;;;;;11.75;7.25;;;;;;;34.34;56.17;100937.97;4997315;28;20022;-74
2021/07/14 15:32:32;;;;;;;15.38;6.57;;;;;;;34.53;55.55;100930.28;4997275;28;20037;-72
2021/07/14 15:35:19;;;;;;;14.88;7.18;;;;;;;34.34;55.59;100930.66;4997264;28;20033;-72
2021/07/14 15:38:05;;;;;;;18.65;7.15;;;;;;;34.67;56.72;100934.13;4997227;28;20085;-73
2021/07/14 15:40:51;;;;;;;18.08;7.97;;;;;;;34.31;59.87;100927.47;4996822;28;20045;-73
2021/07/14 15:43:37;;;;;;;14.52;8.07;;;;;;;34.43;59.92;100926.06;4997038;28;20026;-73
2021/07/14 15:46:23;;;;;;;16.15;8.85;;;;;;;34.71;60.03;100924.56;4996844;28;20026;-74
2021/07/14 15:49:08;;;;;;;17.77;7.95;;;;;;;34.08;62.81;100923.72;4996884;28;20093;-72
2021/07/14 15:51:54;;;;;;;14.73;7.90;;;;;;;33.53;66.00;100925.41;4982574;28;20033;-72
2021/07/14 15:54:41;;;;;;;13.95;8.18;;;;;;;33.66;67.20;100928.44;4996552;28;20026;-72
2021/07/14 15:57:26;;;;;;;13.60;7.75;;;;;;;33.81;65.51;100930.34;4995731;28;20030;-73
2021/07/14 16:00:15;;;;;;;11.68;7.72;;;;;;;33.75;67.04;100922.03;4996510;28;20030;-73
2021/07/14 16:03:01;;;;;;;15.20;7.78;;;;;;;33.65;67.23;100924.03;4995603;28;20460;-73
2021/07/14 16:05:47;;;;;;;10.18;8.00;;;;;;;33.39;68.69;100931.50;4996475;28;20022;-73
2021/07/14 16:08:35;;;;;;;16.15;8.52;;;;;;;33.35;70.86;100935.59;4996581;28;20447;-72
2021/07/14 16:11:21;;;;;;;13.30;8.23;;;;;;;33.52;69.55;100938.16;4998565;28;20028;-72
2021/07/14 16:14:06;;;;;;;15.95;8.20;;;;;;;33.43;70.55;100932.88;4999888;28;20053;-73
2021/07/14 16:16:52;;;;;;;13.43;8.25;;;;;;;33.31;71.96;100929.56;4995744;28;20052;-72
2021/07/14 16:19:38;;;;;;;14.65;8.68;;;;;;;33.38;72.24;100922.50;4996033;28;20026;-73
2021/07/14 16:22:24;;;;;;;14.32;8.38;;;;;;;33.40;73.36;100919.63;4995693;28;20061;-72
2021/07/14 16:25:12;;;;;;;15.65;8.20;;;;;;;33.55;72.20;100926.09;4996342;28;20448;-72
2021/07/14 16:27:57;;;;;;;15.80;7.57;;;;;;;33.43;73.15;100924.72;4995394;28;20026;-72
2021/07/14 16:30:45;;;;;;;13.00;8.60;;;;;;;33.26;75.07;100917.53;4996687;28;20061;-73
2021/07/14 16:33:32;;;;;;;14.10;8.07;;;;;;;33.37;74.19;100923.53;4995831;28;20019;-73
2021/07/14 16:36:18;;;;;;;11.40;8.00;;;;;;;33.59;73.96;100908.44;4996225;28;20030;-72
2021/07/14 16:39:04;;;;;;;14.95;8.38;;;;;;;33.12;77.68;100916.31;4995908;28;20037;-72
2021/07/14 16:41:50;;;;;;;13.48;8.32;;;;;;;33.11;77.76;100908.34;4995908;28;20038;-72
2021/07/14 16:44:35;;;;;;;14.82;8.77;;;;;;;33.37;77.53;100915.38;4982348;28;20026;-73
2021/07/14 16:47:21;;;;;;;14.23;8.35;;;;;;;33.12;78.05;100910.03;4995212;28;20022;-73
2021/07/14 16:50:10;;;;;;;11.60;8.05;;;;;;;33.12;78.02;100910.88;4995906;28;20030;-72
2021/07/14 16:52:55;;;;;;;13.85;7.57;;;;;;;33.09;78.48;100903.06;4995565;28;20477;-73
2021/07/14 16:55:41;;;;;;;16.23;8.05;;;;;;;32.93;78.88;100913.03;4996226;28;20481;-71
2021/07/14 16:58:27;;;;;;;13.90;7.45;;;;;;;32.89;78.88;100912.50;4981345;28;20062;-72
2021/07/14 17:01:13;;;;;;;20.83;7.25;;;;;;;33.07;78.00;100915.94;4995811;28;20034;-72
2021/07/14 17:03:59;;;;;;;11.30;6.68;;;;;;;32.96;77.82;100913.56;4995303;28;20052;-72
2021/07/14 17:06:45;;;;;;;14.30;6.50;;;;;;;32.56;80.64;100905.22;4995403;28;20041;-72
2021/07/14 17:09:31;;;;;;;14.98;7.43;;;;;;;32.94;79.42;100912.03;4995124;28;20415;-71
2021/07/14 17:12:16;;;;;;;18.08;7.13;;;;;;;32.62;80.82;100912.72;4994742;28;20113;-72
2021/07/14 17:15:04;;;;;;;12.43;7.40;;;;;;;33.03;79.46;100909.16;4994870;28;20049;-72
2021/07/14 17:17:50;;;;;;;15.13;7.00;;;;;;;32.73;81.12;100909.72;4982196;28;20040;-71
2021/07/14 17:20:36;;;;;;;14.20;6.78;;;;;;;32.88;81.39;100899.97;4995195;28;20030;-72
2021/07/14 17:23:22;;;;;;;11.18;6.80;;;;;;;32.78;81.31;100901.09;4995440;28;20034;-72
2021/07/14 17:26:09;;;;;;;11.43;7.15;;;;;;;32.96;80.93;100893.69;4981180;28;20089;-72
2021/07/14 17:28:55;;;;;;;12.52;7.10;;;;;;;32.97;80.71;100898.09;4994765;28;20058;-72
2021/07/14 17:31:41;;;;;;;13.95;7.05;;;;;;;32.45;83.74;100904.66;4995305;28;20057;-72
2021/07/14 17:34:27;;;;;;;15.10;6.78;;;;;;;32.61;83.50;100905.59;4981620;28;20022;-72
2021/07/14 17:37:13;;;;;;;10.93;6.80;;;;;;;32.23;86.77;100911.47;4994893;28;20497;-72
2021/07/14 17:39:59;;;;;;;11.35;6.80;;;;;;;32.38;85.51;100906.34;4994507;28;20035;-71
2021/07/14 17:42:45;;;;;;;11.82;6.43;;;;;;;32.15;86.64;100908.72;4981990;28;20027;-72
2021/07/14 17:45:31;;;;;;;16.58;6.72;;;;;;;32.31;85.47;100913.41;4994842;28;20061;-72
2021/07/14 17:48:17;;;;;;;14.02;6.90;;;;;;;31.94;88.01;100915.50;4995173;28;20023;-72
2021/07/14 17:51:03;;;;;;;10.38;5.95;;;;;;;32.11;87.23;100918.19;4994944;28;20105;-72
2021/07/14 17:53:49;;;;;;;17.35;6.70;;;;;;;32.05;87.05;100917.94;4995251;28;20023;-72
2021/07/14 17:56:35;;;;;;;11.32;6.55;;;;;;;31.65;88.98;100921.16;4994705;28;20023;-73
2021/07/14 17:59:21;;;;;;;11.32;6.47;;;;;;;31.77;88.15;100911.81;4995074;28;20040;-72
2021/07/14 18:02:07;;;;;;;15.75;6.30;;;;;;;31.99;87.82;100908.59;4993577;28;20057;-72
2021/07/14 18:04:53;;;;;;;17.02;6.57;;;;;;;31.96;88.06;100922.47;4981621;28;20063;-72
2021/07/14 18:07:39;;;;;;;11.50;6.30;;;;;;;31.54;91.03;100913.25;4994204;28;20262;-72
2021/07/14 18:10:25;;;;;;;14.60;6.95;;;;;;;31.42;92.15;100915.38;4995380;28;20033;-72
2021/07/14 18:13:11;;;;;;;14.45;6.22;;;;;;;31.42;93.24;100913.69;4994675;28;20034;-72
2021/07/14 18:15:57;;;;;;;15.45;6.25;;;;;;;31.44;92.36;100917.94;4994686;28;20498;-73
2021/07/14 18:18:43;;;;;;;12.93;6.72;;;;;;;31.30;93.49;100919.31;4994982;28;20038;-72
2021/07/14 18:21:28;;;;;;;16.58;6.80;;;;;;;31.37;93.47;100922.25;4994072;28;20031;-73
2021/07/14 18:24:14;;;;;;;16.40;7.22;;;;;;;31.25;94.83;100923.50;4994737;28;20030;-71
2021/07/14 18:27:00;;;;;;;10.40;6.55;;;;;;;31.21;95.58;100922.06;4994350;28;20160;-70